Adel, Georgia
Current Conditions -  °F | °C
As of 4:58 PM on Monday 20 Oct 2014 (Local Time) from KVAD Reporting Station
Few Clouds Few Clouds  
Wind Chill: 80°   Ceiling: Unl
Heat Index: 81°   Visibility: 10mi
Dew Point: 59°   Wind: 6mph
Humidity: 49%   Direction: 210°SSW
Pressure: 29.98"   Gusts: NA
Location:  31.14°N, 83.42°W
Report Text: KVAD 202058Z AUTO 21005KT 10SM FEW050 27/15 A2998 RMK AO2 SLP153 T02670152 57015 $
Loading
Personal Weather Stations






























Interactive Weather Map
Tropical Storm Tracking
New forecast layout! Learn more

10-Day Weather Forecast

Advertisements
Track Severe Weather on mobile